HOM weather

Omega Heliport
Miguel Hidalgo, Ciudad de México, Mexico

Public forecast

Using degrees Celsius for public forecast. Weather courtesy of forecast.io.

Closest aviation weather report (METAR) to Omega Heliport

Closest report is Licenciado Benito Juarez International Airport, 7.3 nm (13.4 km) E. Retrieved 2019/12/08 19:45 UTC (60 minutes ago):

MMMX 081945Z 00000KT 5SM SKC 23/00 A3031 NOSIG RMK HZY

Closest aviation forecast (TAF) to Omega Heliport

Closest forecast is Licenciado Benito Juarez International Airport, 7.3 nm (13.4 km) E. Retrieved 2019/12/08 18:18 UTC (2 hours ago):

TAF MMMX 081715Z 0818/0924 03005KT 6SM HZ SKC TX25/0822Z TN08/0913Z BECMG 0820/0821 03010KT FM090200 00000KT P6SM SKC BECMG 0912/0913 6SM HZ FM091800 14005KT 6SM HZ SKC BECMG 0920/0921 14010KT